Time;durP1;ratioP1;P1;durP2;ratioP2;P2;SDS_P1;SDS_P2;PMS_P1;PMS_P2;Temp;Humidity;BMP_temperature;BMP_pressure;BME280_temperature;BME280_humidity;BME280_pressure;Samples;Min_cycle;Max_cycle;Signal;HPM_P1;HPM_P2
2023/05/13 00:02:15;;;;;;;3.43;3.13;;;;;;;15.88;60.86;97430.47;5013160;28;20184;-70
2023/05/13 00:04:41;;;;;;;2.80;2.60;;;;;;;15.90;60.69;97431.09;5014882;28;20700;-71
2023/05/13 00:07:07;;;;;;;8.43;3.30;;;;;;;15.85;60.88;97421.06;5009560;28;20559;-71
2023/05/13 00:09:32;;;;;;;3.47;3.27;;;;;;;15.82;61.24;97430.16;5010291;28;20591;-72
2023/05/13 00:11:58;;;;;;;9.43;3.27;;;;;;;15.82;61.19;97430.16;5017449;28;20632;-71
2023/05/13 00:14:23;;;;;;;5.23;3.37;;;;;;;15.81;61.31;97431.16;5017869;28;20219;-70
2023/05/13 00:16:49;;;;;;;3.17;2.97;;;;;;;15.81;61.13;97423.22;5009283;28;20695;-71
2023/05/13 00:19:14;;;;;;;4.67;3.00;;;;;;;15.82;61.02;97424.88;5014537;28;20239;-70
2023/05/13 00:21:40;;;;;;;3.53;3.17;;;;;;;15.85;61.31;97428.19;5014398;28;20197;-69
2023/05/13 00:24:05;;;;;;;3.70;3.17;;;;;;;15.84;61.21;97429.16;5014074;28;20279;-70
2023/05/13 00:26:31;;;;;;;3.67;3.37;;;;;;;15.79;61.21;97430.50;5019940;28;20214;-69
2023/05/13 00:28:56;;;;;;;4.80;3.20;;;;;;;15.79;61.38;97421.78;5014338;28;20212;-69
2023/05/13 00:31:22;;;;;;;3.90;3.53;;;;;;;15.78;61.26;97425.41;5012818;28;20199;-69
2023/05/13 00:33:47;;;;;;;4.40;3.00;;;;;;;15.75;61.13;97423.94;5013506;28;20834;-71
2023/05/13 00:36:13;;;;;;;3.23;3.03;;;;;;;15.75;61.18;97421.28;5012764;28;20232;-69
2023/05/13 00:38:38;;;;;;;3.67;3.37;;;;;;;15.75;61.12;97417.84;5017000;28;20686;-71
2023/05/13 00:41:04;;;;;;;3.20;2.90;;;;;;;15.74;61.21;97417.03;5018391;28;20223;-71
2023/05/13 00:43:30;;;;;;;3.90;3.60;;;;;;;15.74;61.17;97421.47;5017092;28;20196;-69
2023/05/13 00:45:55;;;;;;;3.40;3.10;;;;;;;15.75;61.19;97423.94;5012021;28;20546;-71
2023/05/13 00:48:21;;;;;;;4.30;3.13;;;;;;;15.76;61.19;97420.28;5017262;28;20294;-71
2023/05/13 00:50:47;;;;;;;4.00;3.47;;;;;;;15.74;61.28;97427.59;5014573;28;20732;-70
2023/05/13 00:53:13;;;;;;;5.00;3.20;;;;;;;15.71;61.19;97422.66;5010144;28;20554;-71
2023/05/13 00:55:43;;;;;;;4.00;3.60;;;;;;;15.68;60.99;97419.56;5017039;28;20457;-72
2023/05/13 00:58:08;;;;;;;3.87;3.47;;;;;;;15.67;61.03;97418.72;5007199;28;20461;-70
2023/05/13 01:00:38;;;;;;;3.17;2.97;;;;;;;15.70;60.99;97425.47;5009693;28;20441;-70
2023/05/13 01:03:20;;;;;;;3.40;3.10;;;;;;;15.69;60.79;97427.31;5012504;28;21136;-70
2023/05/13 01:05:56;;;;;;;5.20;3.43;;;;;;;15.68;61.35;97416.91;5010479;28;20423;-70
2023/05/13 01:08:56;;;;;;;3.47;3.17;;;;;;;15.67;60.90;97418.72;5016174;28;21011;-70
2023/05/13 01:11:27;;;;;;;3.23;3.00;;;;;;;15.66;60.88;97419.72;5001903;28;20436;-72
2023/05/13 01:14:02;;;;;;;3.90;3.30;;;;;;;15.62;61.00;97413.19;5011364;28;20932;-70
2023/05/13 01:16:37;;;;;;;3.70;3.40;;;;;;;15.56;61.26;97416.53;5002291;28;20466;-69
2023/05/13 01:19:10;;;;;;;3.63;3.17;;;;;;;15.53;61.39;97420.34;5008974;28;20488;-69
2023/05/13 01:21:37;;;;;;;6.60;3.97;;;;;;;15.57;61.00;97426.09;5007530;28;20494;-70
2023/05/13 01:24:03;;;;;;;3.60;3.30;;;;;;;15.47;61.18;97427.16;5013697;28;20951;-69
2023/05/13 01:26:29;;;;;;;3.47;3.17;;;;;;;15.44;61.23;97422.22;5016409;28;20430;-70
2023/05/13 01:28:54;;;;;;;7.40;3.40;;;;;;;15.46;61.26;97414.97;5009331;28;20306;-72
2023/05/13 01:31:20;;;;;;;3.37;3.07;;;;;;;15.43;61.46;97417.16;5013493;28;20275;-69
2023/05/13 01:33:46;;;;;;;3.70;3.40;;;;;;;15.41;61.21;97419.13;5016345;28;20195;-69
2023/05/13 01:36:12;;;;;;;3.40;3.10;;;;;;;15.38;61.13;97422.94;5017426;28;20629;-70
2023/05/13 01:38:38;;;;;;;4.40;3.20;;;;;;;15.33;61.19;97428.75;5013994;28;20462;-72
2023/05/13 01:41:04;;;;;;;3.33;3.13;;;;;;;15.28;61.22;97430.28;5013456;28;20452;-70
2023/05/13 01:43:29;;;;;;;5.00;3.80;;;;;;;15.28;61.31;97430.28;5022636;28;20435;-71
2023/05/13 01:45:59;;;;;;;3.90;3.50;;;;;;;15.20;61.04;97428.50;5013512;28;20188;-71
2023/05/13 01:48:24;;;;;;;4.00;3.60;;;;;;;15.16;61.35;97430.69;5013105;28;20223;-71
2023/05/13 01:50:51;;;;;;;3.70;3.40;;;;;;;15.13;61.55;97428.41;4995661;28;20427;-71
2023/05/13 01:53:17;;;;;;;4.17;3.03;;;;;;;15.09;61.75;97435.03;5017504;28;20199;-71
2023/05/13 01:55:42;;;;;;;4.17;3.70;;;;;;;15.07;61.60;97431.75;5028103;28;20462;-69
2023/05/13 01:58:08;;;;;;;4.00;3.60;;;;;;;15.00;61.88;97431.63;5011971;28;21057;-72
2023/05/13 02:00:33;;;;;;;4.93;3.90;;;;;;;15.00;61.44;97433.44;5017444;28;20200;-71
2023/05/13 02:02:59;;;;;;;3.90;3.60;;;;;;;14.98;61.76;97436.25;5016216;28;20195;-71
2023/05/13 02:05:24;;;;;;;4.57;4.17;;;;;;;14.95;61.90;97439.25;5022740;28;20275;-71
2023/05/13 02:07:50;;;;;;;3.87;3.20;;;;;;;14.96;61.78;97442.72;5027273;28;20211;-72
2023/05/13 02:10:15;;;;;;;3.50;2.80;;;;;;;14.98;61.57;97436.25;5015654;28;20254;-70
2023/05/13 02:12:41;;;;;;;3.93;3.60;;;;;;;14.99;61.60;97443.19;5020863;28;20192;-71
2023/05/13 02:15:06;;;;;;;3.47;3.17;;;;;;;14.99;61.41;97443.19;5025605;28;20191;-72
2023/05/13 02:17:32;;;;;;;3.57;3.30;;;;;;;14.97;61.32;97447.00;5018805;28;20299;-69
2023/05/13 02:19:57;;;;;;;3.87;3.40;;;;;;;14.94;61.57;97442.88;5014608;28;20231;-71
2023/05/13 02:22:23;;;;;;;4.50;4.10;;;;;;;14.95;61.28;97433.97;5018709;28;20301;-70
2023/05/13 02:24:48;;;;;;;3.67;3.37;;;;;;;14.93;61.08;97433.34;5004727;28;20832;-72
2023/05/13 02:27:15;;;;;;;3.77;3.37;;;;;;;14.93;61.32;97440.41;5027075;28;20212;-71
2023/05/13 02:29:40;;;;;;;3.73;3.43;;;;;;;14.90;61.41;97437.13;5012249;28;20283;-70
2023/05/13 02:32:06;;;;;;;6.17;3.40;;;;;;;14.90;61.40;97442.41;5020333;28;20906;-70
2023/05/13 02:34:32;;;;;;;5.90;3.60;;;;;;;14.86;61.38;97435.00;5023586;28;20187;-71
2023/05/13 02:36:57;;;;;;;3.50;3.20;;;;;;;14.88;61.21;97441.75;5026675;28;20234;-70
2023/05/13 02:39:22;;;;;;;7.10;3.53;;;;;;;14.89;61.34;97438.13;5029790;28;20219;-71
2023/05/13 02:41:49;;;;;;;4.70;3.30;;;;;;;14.87;61.42;97436.66;5017054;28;20673;-72
2023/05/13 02:44:14;;;;;;;3.70;3.13;;;;;;;14.83;61.04;97449.38;5014619;28;20284;-72
2023/05/13 02:46:39;;;;;;;4.80;3.53;;;;;;;14.83;61.49;97436.19;5030513;28;21131;-72
2023/05/13 02:49:05;;;;;;;3.50;3.30;;;;;;;14.88;61.10;97444.41;5028601;28;20297;-69
2023/05/13 02:51:30;;;;;;;3.60;3.30;;;;;;;14.88;60.88;97440.94;5023020;28;20280;-71
2023/05/13 02:53:56;;;;;;;3.93;3.20;;;;;;;14.83;60.67;97441.47;5030262;28;20270;-70
2023/05/13 02:56:21;;;;;;;4.70;3.03;;;;;;;14.88;60.65;97438.31;5016154;28;20762;-70
2023/05/13 02:58:47;;;;;;;7.07;3.70;;;;;;;14.86;60.70;97441.13;5027838;28;20621;-71
2023/05/13 03:01:12;;;;;;;9.73;3.47;;;;;;;14.86;60.76;97443.78;5015171;28;20275;-70
2023/05/13 03:03:37;;;;;;;3.90;3.60;;;;;;;14.82;60.29;97447.75;5019813;28;20238;-70
2023/05/13 03:06:04;;;;;;;3.47;3.17;;;;;;;14.77;60.55;97442.16;5018811;28;20199;-69
2023/05/13 03:08:30;;;;;;;3.10;2.87;;;;;;;14.80;60.31;97441.81;5018866;28;20214;-69
2023/05/13 03:10:55;;;;;;;3.93;3.43;;;;;;;14.79;60.07;97448.06;5021902;28;20438;-72
2023/05/13 03:13:20;;;;;;;4.07;3.33;;;;;;;14.74;59.92;97439.88;5030387;28;20218;-72
2023/05/13 03:15:46;;;;;;;5.13;3.50;;;;;;;14.73;59.60;97443.50;5022385;28;20212;-72
2023/05/13 03:18:11;;;;;;;8.30;3.40;;;;;;;14.70;59.84;97447.28;5021954;28;20629;-73
2023/05/13 03:20:37;;;;;;;4.10;3.07;;;;;;;14.72;59.74;97445.31;5013236;28;20200;-69
2023/05/13 03:23:02;;;;;;;5.73;3.23;;;;;;;14.74;59.16;97445.97;5015978;28;20243;-72
2023/05/13 03:25:28;;;;;;;3.23;2.97;;;;;;;14.71;59.75;97448.13;5021691;28;20574;-70
2023/05/13 03:27:53;;;;;;;3.40;3.10;;;;;;;14.70;59.63;97447.28;5013058;28;20309;-70
2023/05/13 03:30:19;;;;;;;3.40;3.00;;;;;;;14.70;59.42;97447.28;5011755;28;20194;-72
2023/05/13 03:32:44;;;;;;;4.03;2.90;;;;;;;14.68;59.50;97449.28;5025571;28;20198;-72
2023/05/13 03:35:10;;;;;;;5.97;3.10;;;;;;;14.71;59.83;97451.56;5017651;28;20196;-70
2023/05/13 03:37:35;;;;;;;4.90;3.20;;;;;;;14.68;59.83;97454.56;5025969;28;20251;-72
2023/05/13 03:40:00;;;;;;;3.87;3.57;;;;;;;14.62;59.96;97451.78;5022469;28;20633;-71
2023/05/13 03:42:26;;;;;;;5.80;3.50;;;;;;;14.61;59.82;97447.50;5021562;28;20196;-70
2023/05/13 03:44:52;;;;;;;3.50;3.20;;;;;;;14.59;59.89;97461.69;5019341;28;20195;-71
2023/05/13 03:47:17;;;;;;;5.07;3.40;;;;;;;14.60;59.67;97451.94;5019901;28;20219;-70
2023/05/13 03:49:43;;;;;;;5.17;3.27;;;;;;;14.61;59.32;97460.69;4998425;28;20747;-69
2023/05/13 03:52:08;;;;;;;4.67;3.43;;;;;;;14.56;59.63;97453.25;5018184;28;20199;-73
2023/05/13 03:54:34;;;;;;;3.60;3.30;;;;;;;14.56;59.24;97455.91;5021335;28;20204;-73
2023/05/13 03:57:00;;;;;;;3.50;3.20;;;;;;;14.54;59.61;97458.72;5016124;28;20244;-70
2023/05/13 03:59:25;;;;;;;3.70;3.40;;;;;;;14.51;59.45;97461.69;5014935;28;20188;-70
2023/05/13 04:01:51;;;;;;;4.37;3.37;;;;;;;14.52;59.79;97462.53;5020590;28;20253;-71
2023/05/13 04:04:16;;;;;;;3.77;3.47;;;;;;;14.51;59.63;97466.97;5009402;28;20196;-69
2023/05/13 04:06:41;;;;;;;3.27;3.00;;;;;;;14.51;59.87;97463.53;5016774;28;20644;-70
2023/05/13 04:09:07;;;;;;;4.93;3.77;;;;;;;14.47;59.65;97464.84;5046882;28;20271;-70
2023/05/13 04:11:32;;;;;;;11.73;3.67;;;;;;;14.48;59.74;97462.06;5014144;28;20198;-70
2023/05/13 04:13:58;;;;;;;5.30;3.30;;;;;;;14.49;60.05;97461.03;5020229;28;20247;-69
2023/05/13 04:16:24;;;;;;;3.70;3.40;;;;;;;14.46;59.63;97461.41;5006166;28;20215;-70
2023/05/13 04:18:49;;;;;;;2.97;2.77;;;;;;;14.47;59.93;97465.69;5023334;28;20772;-70
2023/05/13 04:21:15;;;;;;;5.03;2.80;;;;;;;14.49;59.70;97465.50;5019563;28;20446;-70
2023/05/13 04:23:41;;;;;;;7.73;3.30;;;;;;;14.48;59.84;97464.69;5025148;28;20220;-69
2023/05/13 04:26:07;;;;;;;4.00;3.20;;;;;;;14.51;59.71;97474.88;5008448;28;20192;-71
2023/05/13 04:28:33;;;;;;;3.97;3.47;;;;;;;14.55;59.49;97476.19;5012400;28;20242;-70
2023/05/13 04:30:59;;;;;;;5.00;3.67;;;;;;;14.56;59.43;97477.00;5020037;28;20192;-71
2023/05/13 04:33:25;;;;;;;5.50;3.23;;;;;;;14.55;59.26;97483.28;5023748;28;20439;-70
2023/05/13 04:35:51;;;;;;;3.23;3.03;;;;;;;14.54;59.62;97482.44;5012863;28;20517;-71
2023/05/13 04:38:16;;;;;;;3.00;2.80;;;;;;;14.55;59.43;97478.00;5013003;28;20463;-71
2023/05/13 04:40:43;;;;;;;4.83;3.30;;;;;;;14.49;59.69;97482.13;5049272;28;20192;-70
2023/05/13 04:43:10;;;;;;;5.60;3.60;;;;;;;14.47;59.53;97494.69;5014842;28;20199;-71
2023/05/13 04:45:35;;;;;;;3.27;2.97;;;;;;;14.50;59.58;97489.06;5017076;28;20443;-71
2023/05/13 04:48:01;;;;;;;2.87;2.67;;;;;;;14.56;59.26;97490.19;5013075;28;20458;-70
2023/05/13 04:50:26;;;;;;;3.67;3.40;;;;;;;14.56;59.40;97492.81;5015160;28;20199;-69
2023/05/13 04:52:55;;;;;;;3.30;3.10;;;;;;;14.52;59.70;97492.34;5018078;28;20260;-72
2023/05/13 04:55:20;;;;;;;6.93;3.00;;;;;;;14.59;59.26;97495.13;5012863;28;21041;-70
2023/05/13 04:57:46;;;;;;;3.60;3.30;;;;;;;14.59;59.18;97489.84;5011659;28;20462;-71
2023/05/13 05:00:12;;;;;;;3.57;3.27;;;;;;;14.61;59.01;97508.16;5019512;28;20855;-72
2023/05/13 05:02:37;;;;;;;6.50;3.50;;;;;;;14.62;58.87;97499.25;5016597;28;20203;-71
2023/05/13 05:05:04;;;;;;;4.33;3.17;;;;;;;14.64;59.00;97500.72;5014380;28;20427;-69
2023/05/13 05:07:29;;;;;;;3.50;3.20;;;;;;;14.67;58.86;97507.47;5018772;28;20207;-70
2023/05/13 05:09:55;;;;;;;4.13;3.27;;;;;;;14.65;59.00;97505.00;5018590;28;20445;-70
2023/05/13 05:12:20;;;;;;;4.70;3.53;;;;;;;14.63;58.90;97512.25;5007887;28;20192;-69
2023/05/13 05:14:46;;;;;;;5.53;3.40;;;;;;;14.64;58.89;97507.78;5006556;28;20292;-72
2023/05/13 05:17:11;;;;;;;3.63;2.93;;;;;;;14.59;58.65;97517.06;5014678;28;20749;-71
2023/05/13 05:19:36;;;;;;;7.60;3.40;;;;;;;14.61;58.97;97516.88;5026358;28;20299;-71
2023/05/13 05:22:02;;;;;;;3.80;3.30;;;;;;;14.62;58.82;97521.16;5019397;28;20203;-73
2023/05/13 05:24:27;;;;;;;3.70;3.20;;;;;;;14.64;58.88;97515.72;5023049;28;20200;-71
2023/05/13 05:26:53;;;;;;;3.30;2.97;;;;;;;14.60;58.71;97520.50;5015370;28;20195;-71
2023/05/13 05:29:18;;;;;;;3.50;3.20;;;;;;;14.61;58.58;97521.34;5012086;28;20220;-71
2023/05/13 05:31:44;;;;;;;3.97;3.67;;;;;;;14.62;58.30;97523.00;5023658;28;20773;-71
2023/05/13 05:34:10;;;;;;;6.20;3.83;;;;;;;14.62;58.27;97523.81;5014370;28;20200;-69
2023/05/13 05:36:35;;;;;;;3.57;3.30;;;;;;;14.63;58.18;97535.16;5007175;28;20208;-71
2023/05/13 05:39:00;;;;;;;3.50;3.20;;;;;;;14.67;58.00;97525.94;5013312;28;20446;-68
2023/05/13 05:41:26;;;;;;;3.90;3.60;;;;;;;14.65;57.98;97528.75;5011033;28;20196;-70
2023/05/13 05:43:51;;;;;;;4.17;3.50;;;;;;;14.62;58.28;97529.09;5013662;28;20319;-71
2023/05/13 05:46:17;;;;;;;4.17;3.77;;;;;;;14.62;57.94;97529.09;5049570;28;20800;-68
2023/05/13 05:48:42;;;;;;;4.43;2.93;;;;;;;14.57;58.33;97529.59;5014211;28;20208;-69
2023/05/13 05:51:08;;;;;;;3.60;3.30;;;;;;;14.62;58.24;97536.19;5009123;28;20274;-71
2023/05/13 05:53:36;;;;;;;4.17;3.30;;;;;;;14.62;58.60;97537.00;5021762;28;20680;-69
2023/05/13 05:56:02;;;;;;;4.40;3.47;;;;;;;14.58;58.28;97544.44;5009264;28;20259;-71
2023/05/13 05:58:27;;;;;;;3.13;2.93;;;;;;;14.58;58.49;97546.22;5012086;28;20521;-72
2023/05/13 06:00:53;;;;;;;9.73;3.07;;;;;;;14.60;58.39;97541.59;5022898;28;21092;-69
2023/05/13 06:03:19;;;;;;;3.53;3.23;;;;;;;14.62;58.59;97538.81;5020194;28;20191;-71
2023/05/13 06:05:45;;;;;;;3.70;3.40;;;;;;;14.61;58.43;97545.91;5012517;28;20185;-71
2023/05/13 06:08:10;;;;;;;3.37;3.07;;;;;;;14.66;58.54;97540.09;5016146;28;20486;-70
2023/05/13 06:10:37;;;;;;;6.90;3.23;;;;;;;14.66;58.70;97540.94;5012416;28;20974;-68
2023/05/13 06:13:03;;;;;;;3.73;3.43;;;;;;;14.72;58.42;97542.09;5014914;28;20196;-71
2023/05/13 06:15:28;;;;;;;8.90;3.30;;;;;;;14.74;58.35;97542.75;5012609;28;20449;-69
2023/05/13 06:17:53;;;;;;;3.80;3.50;;;;;;;14.77;58.23;97542.41;5020545;28;20250;-72
2023/05/13 06:20:19;;;;;;;4.60;3.70;;;;;;;14.77;57.89;97542.41;5010412;28;20192;-70
2023/05/13 06:22:44;;;;;;;10.47;4.10;;;;;;;14.76;57.71;97543.38;5013237;28;20239;-70
2023/05/13 06:25:10;;;;;;;4.23;3.83;;;;;;;14.74;57.70;97548.84;5023151;28;20286;-71
2023/05/13 06:27:35;;;;;;;4.60;3.97;;;;;;;14.70;57.63;97549.38;5012500;28;20200;-70
2023/05/13 06:30:01;;;;;;;7.53;4.07;;;;;;;14.70;58.19;97546.72;5014781;28;20326;-70
2023/05/13 06:32:26;;;;;;;5.33;3.30;;;;;;;14.76;58.25;97550.50;5017514;28;20207;-71
2023/05/13 06:34:51;;;;;;;4.20;3.80;;;;;;;14.78;58.12;97549.31;5014497;28;20195;-70
2023/05/13 06:37:17;;;;;;;3.87;3.50;;;;;;;14.79;57.64;97545.69;5012784;28;20214;-71
2023/05/13 06:39:43;;;;;;;4.33;3.93;;;;;;;14.81;57.25;97550.78;5014752;28;20874;-70
2023/05/13 06:42:08;;;;;;;3.83;3.53;;;;;;;14.83;57.41;97552.28;5018706;28;20617;-70
2023/05/13 06:44:34;;;;;;;4.40;4.00;;;;;;;14.86;57.33;97556.38;5021049;28;20192;-69
2023/05/13 06:47:01;;;;;;;5.60;3.47;;;;;;;14.90;57.38;97555.88;5023231;28;20653;-71
2023/05/13 06:49:27;;;;;;;4.77;3.87;;;;;;;14.95;57.56;97544.00;5017367;28;20202;-72
2023/05/13 06:51:52;;;;;;;10.30;4.00;;;;;;;15.01;57.50;97556.47;5015110;28;20921;-72
2023/05/13 06:54:18;;;;;;;4.10;3.80;;;;;;;15.02;57.10;97556.34;5008386;28;20195;-70
2023/05/13 06:56:43;;;;;;;4.80;4.30;;;;;;;15.08;57.05;97544.25;5014713;28;20254;-72
2023/05/13 06:59:09;;;;;;;4.30;3.90;;;;;;;15.12;56.74;97547.38;5017113;28;20243;-70
2023/05/13 07:01:34;;;;;;;4.33;3.93;;;;;;;15.11;56.55;97549.19;5022547;28;20184;-70
2023/05/13 07:04:00;;;;;;;4.60;4.20;;;;;;;15.09;56.37;97555.63;5013258;28;20189;-71
2023/05/13 07:06:25;;;;;;;5.40;4.90;;;;;;;15.12;56.32;97555.28;5014212;28;20188;-71
2023/05/13 07:08:51;;;;;;;8.43;4.83;;;;;;;15.17;56.64;97553.78;5014925;28;20219;-71
2023/05/13 07:11:16;;;;;;;5.33;4.80;;;;;;;15.23;56.58;97559.38;5011755;28;20302;-71
2023/05/13 07:13:42;;;;;;;8.20;4.17;;;;;;;15.26;56.17;97556.38;5015693;28;20227;-73
2023/05/13 07:16:07;;;;;;;5.00;4.50;;;;;;;15.28;56.19;97552.56;5020391;28;20207;-70
2023/05/13 07:18:33;;;;;;;7.43;4.90;;;;;;;15.35;56.31;97560.63;5026015;28;20218;-71
2023/05/13 07:20:59;;;;;;;7.67;5.20;;;;;;;15.39;56.19;97556.63;5019995;28;20232;-72
2023/05/13 07:23:24;;;;;;;7.10;4.90;;;;;;;15.42;56.08;97558.09;5015597;28;22765;-70
2023/05/13 07:25:51;;;;;;;5.30;4.67;;;;;;;15.42;55.86;97561.56;5005920;28;20185;-70
2023/05/13 07:28:18;;;;;;;7.83;4.30;;;;;;;15.48;55.83;97566.16;5019416;28;20216;-71
2023/05/13 07:30:44;;;;;;;6.93;3.90;;;;;;;15.49;55.49;97567.81;5018892;28;20938;-71
2023/05/13 07:33:09;;;;;;;5.40;4.37;;;;;;;15.54;55.05;97558.50;5022056;28;20434;-71
2023/05/13 07:35:36;;;;;;;4.30;3.97;;;;;;;15.51;55.02;97559.69;5018907;28;20188;-70
2023/05/13 07:38:03;;;;;;;5.90;4.10;;;;;;;15.52;55.14;97556.88;5020225;28;20220;-73
2023/05/13 07:40:28;;;;;;;6.50;4.27;;;;;;;15.61;55.02;97552.34;5020293;28;20435;-70
2023/05/13 07:42:54;;;;;;;4.10;3.73;;;;;;;15.68;54.83;97557.75;5021440;28;20537;-73
2023/05/13 07:45:19;;;;;;;4.57;4.17;;;;;;;15.69;54.66;97554.13;5013551;28;20200;-70
2023/05/13 07:47:45;;;;;;;4.90;4.40;;;;;;;15.78;54.49;97549.59;5018934;28;20204;-72
2023/05/13 07:50:10;;;;;;;5.40;4.17;;;;;;;15.82;54.61;97551.72;4987605;28;20716;-70
2023/05/13 07:52:36;;;;;;;4.30;3.90;;;;;;;15.86;54.45;97559.31;5013701;28;20188;-69
2023/05/13 07:55:01;;;;;;;4.73;4.33;;;;;;;15.88;54.27;97554.69;5020816;28;20646;-72
2023/05/13 07:57:26;;;;;;;4.70;4.27;;;;;;;15.90;53.94;97565.88;5019972;28;20227;-71
2023/05/13 07:59:53;;;;;;;4.60;4.20;;;;;;;15.94;53.95;97561.88;5022361;28;20274;-70
2023/05/13 08:02:18;;;;;;;5.10;4.00;;;;;;;15.87;53.57;97564.41;5019876;28;20200;-69
2023/05/13 08:04:44;;;;;;;4.63;4.20;;;;;;;15.92;54.04;97571.81;5025949;28;20434;-68
2023/05/13 08:07:10;;;;;;;5.63;4.87;;;;;;;15.93;53.54;97568.16;5021145;28;20200;-70
2023/05/13 08:09:35;;;;;;;4.83;4.30;;;;;;;15.97;54.15;97569.47;5009949;28;20720;-71
2023/05/13 08:12:01;;;;;;;4.90;4.40;;;;;;;15.97;53.56;97574.75;5016624;28;20435;-72
2023/05/13 08:14:27;;;;;;;6.93;4.53;;;;;;;15.99;53.68;97577.22;5013194;28;20231;-69
2023/05/13 08:16:52;;;;;;;6.77;4.53;;;;;;;16.01;53.71;97569.94;5019888;28;20203;-70
2023/05/13 08:19:18;;;;;;;5.07;4.57;;;;;;;15.97;53.57;97567.63;5020853;28;20445;-71
2023/05/13 08:21:44;;;;;;;4.80;4.40;;;;;;;16.01;53.47;97573.38;5023558;28;20196;-73
2023/05/13 08:24:09;;;;;;;5.23;4.63;;;;;;;16.05;53.95;97571.22;5021336;28;20253;-70
2023/05/13 08:26:36;;;;;;;5.50;5.00;;;;;;;16.06;53.95;97578.97;5016058;28;20192;-70
2023/05/13 08:29:01;;;;;;;7.30;4.60;;;;;;;16.09;53.91;97573.34;5016297;28;20747;-70
2023/05/13 08:31:27;;;;;;;4.60;4.20;;;;;;;16.12;53.56;97578.28;5017319;28;20439;-71
2023/05/13 08:33:52;;;;;;;5.30;4.60;;;;;;;16.07;53.67;97583.25;5026038;28;20196;-72
2023/05/13 08:36:21;;;;;;;5.27;4.77;;;;;;;16.09;53.22;97578.63;5005541;28;20216;-69
2023/05/13 08:38:47;;;;;;;4.97;4.47;;;;;;;16.10;53.42;97582.06;4996683;28;20232;-70
2023/05/13 08:41:13;;;;;;;5.70;4.90;;;;;;;16.06;53.42;97584.25;5024424;28;20435;-68
2023/05/13 08:43:38;;;;;;;5.80;4.93;;;;;;;16.02;53.87;97579.50;5016826;28;20185;-67
2023/05/13 08:46:08;;;;;;;5.10;4.60;;;;;;;15.99;54.09;97585.13;4996429;28;20944;-68
2023/05/13 08:48:35;;;;;;;5.37;4.47;;;;;;;15.97;53.78;97582.69;5017538;28;20216;-72
2023/05/13 08:51:01;;;;;;;5.10;4.60;;;;;;;15.96;53.81;97584.50;4993148;28;20446;-70
2023/05/13 08:53:27;;;;;;;5.43;4.73;;;;;;;15.97;54.08;97585.31;4998163;28;20444;-69
2023/05/13 08:55:53;;;;;;;5.43;4.70;;;;;;;15.97;54.26;97585.31;5017111;28;20475;-71
2023/05/13 08:58:18;;;;;;;5.30;4.80;;;;;;;16.00;54.38;97584.16;5015176;28;20446;-71
2023/05/13 09:00:44;;;;;;;5.70;4.77;;;;;;;16.00;54.34;97579.69;5013481;28;20436;-71
2023/05/13 09:03:11;;;;;;;5.13;4.63;;;;;;;16.03;53.82;97587.25;5015061;28;20219;-72
2023/05/13 09:05:36;;;;;;;4.80;4.30;;;;;;;16.00;54.07;97584.97;5016460;28;20210;-70
2023/05/13 09:08:07;;;;;;;7.90;5.47;;;;;;;15.96;54.20;97591.59;5016024;28;20455;-72
2023/05/13 09:10:32;;;;;;;8.83;4.40;;;;;;;15.95;54.45;97593.41;5014495;28;20184;-70
2023/05/13 09:12:59;;;;;;;7.50;4.93;;;;;;;15.92;54.35;97596.44;5022369;28;20434;-71
2023/05/13 09:15:26;;;;;;;6.90;4.40;;;;;;;15.93;54.49;97594.59;5019114;28;20266;-71
2023/05/13 09:17:59;;;;;;;10.13;4.97;;;;;;;15.91;54.46;97593.94;5009711;28;20463;-71
2023/05/13 09:20:25;;;;;;;5.30;4.33;;;;;;;15.92;54.89;97590.31;5014089;28;20437;-69
2023/05/13 09:22:51;;;;;;;7.60;4.23;;;;;;;15.94;54.66;97590.97;5030714;28;20433;-70
2023/05/13 09:25:19;;;;;;;5.90;4.60;;;;;;;15.96;54.64;97589.78;5018370;28;20440;-71
2023/05/13 09:27:50;;;;;;;4.97;4.47;;;;;;;15.97;54.51;97585.31;5013035;28;20447;-71
2023/05/13 09:30:15;;;;;;;4.60;4.20;;;;;;;16.00;54.08;97589.44;5018271;28;20449;-71
2023/05/13 09:32:41;;;;;;;4.93;4.53;;;;;;;16.03;53.87;97591.72;5026522;28;21102;-67
2023/05/13 09:35:17;;;;;;;4.97;4.30;;;;;;;15.97;54.24;97591.44;5016145;28;20681;-69
2023/05/13 09:37:46;;;;;;;5.10;4.60;;;;;;;15.96;54.14;97594.25;5017469;28;20493;-69
2023/05/13 09:40:16;;;;;;;5.13;4.63;;;;;;;15.99;54.12;97593.91;5027233;28;20770;-69
2023/05/13 09:42:43;;;;;;;5.50;4.30;;;;;;;16.00;54.28;97590.25;5013681;28;21039;-70
2023/05/13 09:45:10;;;;;;;6.63;5.10;;;;;;;16.08;54.36;97586.72;5021412;28;20430;-69
2023/05/13 09:47:36;;;;;;;4.57;3.97;;;;;;;16.13;54.61;97595.75;4991411;28;21260;-70
2023/05/13 09:50:02;;;;;;;4.40;3.60;;;;;;;16.15;54.41;97592.09;5009320;28;20530;-71
2023/05/13 09:52:32;;;;;;;4.27;3.87;;;;;;;16.19;54.13;97590.75;5011493;28;20223;-70
2023/05/13 09:54:58;;;;;;;4.83;4.43;;;;;;;16.33;54.18;97600.56;5009398;28;20759;-72
2023/05/13 09:57:26;;;;;;;4.50;4.10;;;;;;;16.37;53.28;97596.56;5000378;28;20475;-72
2023/05/13 09:59:56;;;;;;;3.83;3.53;;;;;;;16.40;54.00;97603.31;5019788;28;20438;-70
2023/05/13 10:02:21;;;;;;;3.90;3.60;;;;;;;16.38;53.79;97603.47;5012571;28;20450;-71
2023/05/13 10:04:47;;;;;;;4.10;3.70;;;;;;;16.42;53.58;97606.59;5015459;28;20426;-72
2023/05/13 10:07:13;;;;;;;3.77;3.47;;;;;;;16.48;53.50;97613.00;5017992;28;20235;-72
2023/05/13 10:09:39;;;;;;;4.67;4.27;;;;;;;16.52;53.97;97611.59;5015827;28;20275;-70
2023/05/13 10:12:06;;;;;;;4.40;3.90;;;;;;;16.61;53.61;97607.91;5026925;28;20580;-72
2023/05/13 10:14:32;;;;;;;4.70;4.00;;;;;;;16.73;53.76;97605.59;5047089;28;20433;-71
2023/05/13 10:16:58;;;;;;;5.07;3.93;;;;;;;16.82;53.31;97603.69;5007572;28;20509;-73
2023/05/13 10:19:24;;;;;;;4.50;4.10;;;;;;;16.87;52.66;97609.28;5011612;28;20200;-71
2023/05/13 10:21:51;;;;;;;4.20;3.80;;;;;;;16.91;52.72;97605.25;5022760;28;20184;-71
2023/05/13 10:24:17;;;;;;;4.90;3.60;;;;;;;16.98;52.79;97598.25;5018853;28;20438;-71
2023/05/13 10:26:43;;;;;;;5.13;4.03;;;;;;;17.02;52.73;97604.81;5011632;28;20431;-71
2023/05/13 10:29:10;;;;;;;8.83;4.20;;;;;;;17.13;52.62;97600.88;5014662;28;20455;-71
2023/05/13 10:31:36;;;;;;;3.93;3.63;;;;;;;17.23;52.56;97602.41;5017402;28;20446;-70
2023/05/13 10:34:02;;;;;;;6.90;4.10;;;;;;;17.31;52.20;97604.97;5013887;28;20446;-71
2023/05/13 10:36:44;;;;;;;4.93;4.53;;;;;;;17.40;51.86;97597.72;5015303;28;20465;-69
2023/05/13 10:39:40;;;;;;;4.33;3.93;;;;;;;17.44;51.46;97596.34;5013962;28;20454;-68
2023/05/13 10:42:14;;;;;;;6.77;5.07;;;;;;;17.45;51.48;97600.66;5007734;28;20431;-72
2023/05/13 10:44:40;;;;;;;4.40;3.80;;;;;;;17.49;51.72;97600.06;5022277;28;20431;-70
2023/05/13 10:47:08;;;;;;;4.20;3.90;;;;;;;17.53;51.50;97597.06;5008148;28;20481;-71
2023/05/13 10:49:34;;;;;;;3.73;3.43;;;;;;;17.54;51.49;97598.72;5012817;28;20266;-72
2023/05/13 10:52:07;;;;;;;3.80;3.50;;;;;;;17.56;51.48;97597.50;5007667;28;21075;-71
2023/05/13 10:54:40;;;;;;;12.50;8.83;;;;;;;17.59;51.26;97598.94;4983874;28;20435;-69
2023/05/13 10:57:07;;;;;;;12.03;9.27;;;;;;;17.71;51.23;97602.75;5016638;28;20463;-70
2023/05/13 10:59:34;;;;;;;13.50;8.90;;;;;;;17.72;51.30;97599.09;5018953;28;20438;-71
2023/05/13 11:02:02;;;;;;;7.07;5.40;;;;;;;17.63;50.94;97598.41;5018142;28;20435;-72
2023/05/13 11:04:27;;;;;;;7.10;6.50;;;;;;;17.58;51.20;97598.13;5027739;28;21072;-70
2023/05/13 11:06:53;;;;;;;11.30;8.30;;;;;;;17.63;51.71;97602.88;5024404;28;20433;-70
2023/05/13 11:09:21;;;;;;;7.47;5.43;;;;;;;17.64;51.74;97599.22;5010025;28;20202;-70
2023/05/13 11:11:55;;;;;;;6.47;4.90;;;;;;;17.60;51.53;97597.94;5013818;28;20199;-69
2023/05/13 11:14:22;;;;;;;4.87;4.43;;;;;;;17.57;51.65;97599.16;5022064;28;20438;-72
2023/05/13 11:17:00;;;;;;;10.00;4.80;;;;;;;17.56;51.95;97604.66;5020665;28;20545;-70
2023/05/13 11:19:36;;;;;;;4.83;4.20;;;;;;;17.50;52.04;97598.25;5012731;28;20434;-69
2023/05/13 11:22:11;;;;;;;4.23;3.90;;;;;;;17.47;52.29;97595.97;5011234;28;20554;-71
2023/05/13 11:24:37;;;;;;;6.90;5.07;;;;;;;17.47;52.25;97606.59;5019907;28;20504;-70
2023/05/13 11:27:19;;;;;;;5.03;4.60;;;;;;;17.36;52.32;97599.94;5018802;28;20939;-70
2023/05/13 11:29:52;;;;;;;4.77;4.37;;;;;;;17.31;52.20;97608.44;5009713;28;20188;-69
2023/05/13 11:32:54;;;;;;;5.00;4.20;;;;;;;17.28;52.15;97603.50;5013207;28;20984;-71